sensor_id;sensor_type;location;lat;lon;timestamp;P1;durP1;ratioP1;P2;durP2;ratioP2
9156;SDS011;4613;48.392;9.998;2023-08-31T00:01:14;2.80;;;2.30;;
9156;SDS011;4613;48.392;9.998;2023-08-31T00:04:03;2.20;;;2.00;;
9156;SDS011;4613;48.392;9.998;2023-08-31T00:06:53;2.23;;;2.03;;
9156;SDS011;4613;48.392;9.998;2023-08-31T00:09:42;2.00;;;1.87;;
9156;SDS011;4613;48.392;9.998;2023-08-31T00:12:32;2.30;;;2.10;;
9156;SDS011;4613;48.392;9.998;2023-08-31T00:15:21;2.57;;;2.20;;
9156;SDS011;4613;48.392;9.998;2023-08-31T00:18:12;1.90;;;1.80;;
9156;SDS011;4613;48.392;9.998;2023-08-31T00:21:04;1.77;;;1.67;;
9156;SDS011;4613;48.392;9.998;2023-08-31T00:23:54;2.07;;;1.97;;
9156;SDS011;4613;48.392;9.998;2023-08-31T00:26:43;2.17;;;1.97;;
9156;SDS011;4613;48.392;9.998;2023-08-31T00:29:33;2.10;;;1.90;;
9156;SDS011;4613;48.392;9.998;2023-08-31T00:32:23;1.90;;;1.80;;
9156;SDS011;4613;48.392;9.998;2023-08-31T00:35:13;1.90;;;1.77;;
9156;SDS011;4613;48.392;9.998;2023-08-31T00:38:02;1.93;;;1.83;;
9156;SDS011;4613;48.392;9.998;2023-08-31T00:40:53;1.80;;;1.70;;
9156;SDS011;4613;48.392;9.998;2023-08-31T00:43:42;1.87;;;1.77;;
9156;SDS011;4613;48.392;9.998;2023-08-31T00:46:31;1.40;;;1.30;;
9156;SDS011;4613;48.392;9.998;2023-08-31T00:49:21;1.93;;;1.47;;
9156;SDS011;4613;48.392;9.998;2023-08-31T00:52:11;1.30;;;1.20;;
9156;SDS011;4613;48.392;9.998;2023-08-31T00:55:01;1.23;;;1.23;;
9156;SDS011;4613;48.392;9.998;2023-08-31T00:57:53;1.40;;;1.30;;
9156;SDS011;4613;48.392;9.998;2023-08-31T01:10:46;1.50;;;1.40;;
9156;SDS011;4613;48.392;9.998;2023-08-31T01:13:43;2.10;;;1.40;;
9156;SDS011;4613;48.392;9.998;2023-08-31T01:16:38;1.30;;;1.30;;
9156;SDS011;4613;48.392;9.998;2023-08-31T01:22:29;1.37;;;1.27;;
9156;SDS011;4613;48.392;9.998;2023-08-31T01:25:26;1.53;;;1.43;;
9156;SDS011;4613;48.392;9.998;2023-08-31T01:28:18;1.50;;;1.40;;
9156;SDS011;4613;48.392;9.998;2023-08-31T01:31:08;1.20;;;1.20;;
9156;SDS011;4613;48.392;9.998;2023-08-31T01:33:58;1.83;;;1.50;;
9156;SDS011;4613;48.392;9.998;2023-08-31T01:36:48;1.30;;;1.13;;
9156;SDS011;4613;48.392;9.998;2023-08-31T01:43:02;1.13;;;1.13;;
9156;SDS011;4613;48.392;9.998;2023-08-31T01:45:56;2.13;;;1.30;;
9156;SDS011;4613;48.392;9.998;2023-08-31T01:48:47;1.87;;;1.10;;
9156;SDS011;4613;48.392;9.998;2023-08-31T01:51:36;1.20;;;1.10;;
9156;SDS011;4613;48.392;9.998;2023-08-31T01:54:25;1.80;;;1.13;;
9156;SDS011;4613;48.392;9.998;2023-08-31T01:57:15;1.10;;;1.00;;
9156;SDS011;4613;48.392;9.998;2023-08-31T02:00:25;1.10;;;1.10;;
9156;SDS011;4613;48.392;9.998;2023-08-31T02:03:15;1.17;;;1.17;;
9156;SDS011;4613;48.392;9.998;2023-08-31T02:06:04;1.00;;;1.00;;
9156;SDS011;4613;48.392;9.998;2023-08-31T02:08:54;1.23;;;1.13;;
9156;SDS011;4613;48.392;9.998;2023-08-31T02:11:43;1.30;;;1.20;;
9156;SDS011;4613;48.392;9.998;2023-08-31T02:14:32;1.30;;;1.20;;
9156;SDS011;4613;48.392;9.998;2023-08-31T02:17:21;1.37;;;1.23;;
9156;SDS011;4613;48.392;9.998;2023-08-31T02:20:10;2.30;;;1.43;;
9156;SDS011;4613;48.392;9.998;2023-08-31T02:23:00;1.40;;;1.30;;
9156;SDS011;4613;48.392;9.998;2023-08-31T02:25:49;0.90;;;0.90;;
9156;SDS011;4613;48.392;9.998;2023-08-31T02:28:39;1.10;;;1.10;;
9156;SDS011;4613;48.392;9.998;2023-08-31T02:31:28;1.27;;;1.17;;
9156;SDS011;4613;48.392;9.998;2023-08-31T02:34:17;1.37;;;1.27;;
9156;SDS011;4613;48.392;9.998;2023-08-31T02:37:06;2.07;;;1.10;;
9156;SDS011;4613;48.392;9.998;2023-08-31T02:39:55;3.57;;;1.40;;
9156;SDS011;4613;48.392;9.998;2023-08-31T02:42:44;1.00;;;0.90;;
9156;SDS011;4613;48.392;9.998;2023-08-31T02:45:37;1.10;;;1.10;;
9156;SDS011;4613;48.392;9.998;2023-08-31T02:48:26;1.80;;;1.30;;
9156;SDS011;4613;48.392;9.998;2023-08-31T02:51:16;1.40;;;1.30;;
9156;SDS011;4613;48.392;9.998;2023-08-31T02:54:05;1.30;;;1.20;;
9156;SDS011;4613;48.392;9.998;2023-08-31T02:56:55;1.10;;;1.10;;
9156;SDS011;4613;48.392;9.998;2023-08-31T02:59:44;1.17;;;1.17;;
9156;SDS011;4613;48.392;9.998;2023-08-31T03:02:35;1.37;;;1.27;;
9156;SDS011;4613;48.392;9.998;2023-08-31T03:05:26;1.30;;;1.20;;
9156;SDS011;4613;48.392;9.998;2023-08-31T03:08:15;1.40;;;1.30;;
9156;SDS011;4613;48.392;9.998;2023-08-31T03:11:05;1.20;;;1.10;;
9156;SDS011;4613;48.392;9.998;2023-08-31T03:13:54;2.37;;;1.50;;
9156;SDS011;4613;48.392;9.998;2023-08-31T03:16:43;1.20;;;1.17;;
9156;SDS011;4613;48.392;9.998;2023-08-31T03:19:32;1.47;;;1.37;;
9156;SDS011;4613;48.392;9.998;2023-08-31T03:22:22;1.40;;;1.30;;
9156;SDS011;4613;48.392;9.998;2023-08-31T03:25:11;1.37;;;1.27;;
9156;SDS011;4613;48.392;9.998;2023-08-31T03:28:00;1.53;;;1.20;;
9156;SDS011;4613;48.392;9.998;2023-08-31T03:30:55;1.50;;;1.40;;
9156;SDS011;4613;48.392;9.998;2023-08-31T03:33:45;1.00;;;1.00;;
9156;SDS011;4613;48.392;9.998;2023-08-31T03:36:35;1.20;;;1.10;;
9156;SDS011;4613;48.392;9.998;2023-08-31T03:39:25;1.50;;;1.40;;
9156;SDS011;4613;48.392;9.998;2023-08-31T03:42:15;1.40;;;1.30;;
9156;SDS011;4613;48.392;9.998;2023-08-31T03:45:04;1.70;;;1.43;;
9156;SDS011;4613;48.392;9.998;2023-08-31T03:47:54;1.00;;;1.00;;
9156;SDS011;4613;48.392;9.998;2023-08-31T03:50:43;1.27;;;1.17;;
9156;SDS011;4613;48.392;9.998;2023-08-31T03:53:32;1.40;;;1.30;;
9156;SDS011;4613;48.392;9.998;2023-08-31T03:56:22;1.40;;;1.30;;
9156;SDS011;4613;48.392;9.998;2023-08-31T03:59:11;2.00;;;1.33;;
9156;SDS011;4613;48.392;9.998;2023-08-31T04:02:01;1.50;;;1.40;;
9156;SDS011;4613;48.392;9.998;2023-08-31T04:04:52;1.63;;;1.53;;
9156;SDS011;4613;48.392;9.998;2023-08-31T04:07:41;1.40;;;1.20;;
9156;SDS011;4613;48.392;9.998;2023-08-31T04:10:31;1.37;;;1.27;;
9156;SDS011;4613;48.392;9.998;2023-08-31T04:13:21;1.47;;;1.37;;
9156;SDS011;4613;48.392;9.998;2023-08-31T04:16:10;1.40;;;1.30;;
9156;SDS011;4613;48.392;9.998;2023-08-31T04:18:59;1.40;;;1.30;;
9156;SDS011;4613;48.392;9.998;2023-08-31T04:21:48;1.30;;;1.23;;
9156;SDS011;4613;48.392;9.998;2023-08-31T04:24:37;1.20;;;1.20;;
9156;SDS011;4613;48.392;9.998;2023-08-31T04:27:26;1.30;;;1.20;;
9156;SDS011;4613;48.392;9.998;2023-08-31T04:30:16;1.33;;;1.23;;
9156;SDS011;4613;48.392;9.998;2023-08-31T04:33:06;1.57;;;1.40;;
9156;SDS011;4613;48.392;9.998;2023-08-31T04:35:56;1.27;;;1.17;;
9156;SDS011;4613;48.392;9.998;2023-08-31T04:38:45;1.43;;;1.33;;
9156;SDS011;4613;48.392;9.998;2023-08-31T04:41:34;1.40;;;1.30;;
9156;SDS011;4613;48.392;9.998;2023-08-31T04:44:27;1.20;;;1.10;;
9156;SDS011;4613;48.392;9.998;2023-08-31T04:47:16;1.40;;;1.30;;
9156;SDS011;4613;48.392;9.998;2023-08-31T04:50:05;1.40;;;1.30;;
9156;SDS011;4613;48.392;9.998;2023-08-31T04:52:55;2.73;;;1.30;;
9156;SDS011;4613;48.392;9.998;2023-08-31T04:55:44;1.50;;;1.40;;
9156;SDS011;4613;48.392;9.998;2023-08-31T04:58:33;1.77;;;1.47;;
9156;SDS011;4613;48.392;9.998;2023-08-31T05:01:22;1.00;;;1.00;;
9156;SDS011;4613;48.392;9.998;2023-08-31T05:04:11;1.20;;;1.20;;
9156;SDS011;4613;48.392;9.998;2023-08-31T05:07:00;1.87;;;1.40;;
9156;SDS011;4613;48.392;9.998;2023-08-31T05:09:49;1.50;;;1.40;;
9156;SDS011;4613;48.392;9.998;2023-08-31T05:12:39;1.87;;;1.53;;
9156;SDS011;4613;48.392;9.998;2023-08-31T05:15:28;1.17;;;1.17;;
9156;SDS011;4613;48.392;9.998;2023-08-31T05:18:18;1.40;;;1.30;;
9156;SDS011;4613;48.392;9.998;2023-08-31T05:21:07;1.70;;;1.60;;
9156;SDS011;4613;48.392;9.998;2023-08-31T05:23:57;1.47;;;1.27;;
9156;SDS011;4613;48.392;9.998;2023-08-31T05:26:46;1.33;;;1.20;;
9156;SDS011;4613;48.392;9.998;2023-08-31T05:29:35;1.60;;;1.40;;
9156;SDS011;4613;48.392;9.998;2023-08-31T05:32:27;1.53;;;1.40;;
9156;SDS011;4613;48.392;9.998;2023-08-31T05:35:17;1.40;;;1.30;;
9156;SDS011;4613;48.392;9.998;2023-08-31T05:38:06;1.60;;;1.50;;
9156;SDS011;4613;48.392;9.998;2023-08-31T05:41:02;1.37;;;1.27;;
9156;SDS011;4613;48.392;9.998;2023-08-31T05:43:54;1.60;;;1.50;;
9156;SDS011;4613;48.392;9.998;2023-08-31T05:46:43;1.83;;;1.20;;
9156;SDS011;4613;48.392;9.998;2023-08-31T05:49:32;1.70;;;1.40;;
9156;SDS011;4613;48.392;9.998;2023-08-31T05:52:22;1.40;;;1.30;;
9156;SDS011;4613;48.392;9.998;2023-08-31T05:55:11;1.53;;;1.43;;
9156;SDS011;4613;48.392;9.998;2023-08-31T05:58:01;1.50;;;1.40;;
9156;SDS011;4613;48.392;9.998;2023-08-31T06:00:51;1.60;;;1.50;;
9156;SDS011;4613;48.392;9.998;2023-08-31T06:03:40;2.37;;;1.60;;
9156;SDS011;4613;48.392;9.998;2023-08-31T06:06:29;1.47;;;1.37;;
9156;SDS011;4613;48.392;9.998;2023-08-31T06:09:21;1.60;;;1.50;;
9156;SDS011;4613;48.392;9.998;2023-08-31T06:12:10;1.50;;;1.40;;
9156;SDS011;4613;48.392;9.998;2023-08-31T06:14:59;1.60;;;1.47;;
9156;SDS011;4613;48.392;9.998;2023-08-31T06:17:48;2.13;;;1.53;;
9156;SDS011;4613;48.392;9.998;2023-08-31T06:20:37;1.70;;;1.60;;
9156;SDS011;4613;48.392;9.998;2023-08-31T06:23:27;2.07;;;1.40;;
9156;SDS011;4613;48.392;9.998;2023-08-31T06:26:16;1.53;;;1.33;;
9156;SDS011;4613;48.392;9.998;2023-08-31T06:29:06;1.43;;;1.33;;
9156;SDS011;4613;48.392;9.998;2023-08-31T06:31:59;1.77;;;1.37;;
9156;SDS011;4613;48.392;9.998;2023-08-31T06:34:48;1.30;;;1.20;;
9156;SDS011;4613;48.392;9.998;2023-08-31T06:37:38;1.47;;;1.37;;
9156;SDS011;4613;48.392;9.998;2023-08-31T06:40:28;1.37;;;1.30;;
9156;SDS011;4613;48.392;9.998;2023-08-31T06:43:17;1.30;;;1.20;;
9156;SDS011;4613;48.392;9.998;2023-08-31T06:46:06;1.33;;;1.27;;
9156;SDS011;4613;48.392;9.998;2023-08-31T06:48:55;1.27;;;1.23;;
9156;SDS011;4613;48.392;9.998;2023-08-31T06:51:45;1.67;;;1.47;;
9156;SDS011;4613;48.392;9.998;2023-08-31T06:54:34;2.20;;;1.53;;
9156;SDS011;4613;48.392;9.998;2023-08-31T06:57:24;1.33;;;1.30;;
9156;SDS011;4613;48.392;9.998;2023-08-31T07:00:14;1.50;;;1.27;;
9156;SDS011;4613;48.392;9.998;2023-08-31T07:03:04;1.60;;;1.50;;
9156;SDS011;4613;48.392;9.998;2023-08-31T07:05:54;2.47;;;1.60;;
9156;SDS011;4613;48.392;9.998;2023-08-31T07:08:44;1.97;;;1.30;;
9156;SDS011;4613;48.392;9.998;2023-08-31T07:11:36;3.20;;;1.60;;
9156;SDS011;4613;48.392;9.998;2023-08-31T07:14:25;2.03;;;1.50;;
9156;SDS011;4613;48.392;9.998;2023-08-31T07:17:17;1.53;;;1.43;;
9156;SDS011;4613;48.392;9.998;2023-08-31T07:20:07;2.47;;;1.50;;
9156;SDS011;4613;48.392;9.998;2023-08-31T07:22:57;1.37;;;1.27;;
9156;SDS011;4613;48.392;9.998;2023-08-31T07:25:48;1.43;;;1.20;;
9156;SDS011;4613;48.392;9.998;2023-08-31T07:28:37;1.50;;;1.40;;
9156;SDS011;4613;48.392;9.998;2023-08-31T07:31:26;1.40;;;1.30;;
9156;SDS011;4613;48.392;9.998;2023-08-31T07:34:15;1.70;;;1.33;;
9156;SDS011;4613;48.392;9.998;2023-08-31T07:37:05;1.40;;;1.30;;
9156;SDS011;4613;48.392;9.998;2023-08-31T07:39:55;1.40;;;1.30;;
9156;SDS011;4613;48.392;9.998;2023-08-31T07:42:44;1.70;;;1.30;;
9156;SDS011;4613;48.392;9.998;2023-08-31T07:45:33;1.70;;;1.47;;
9156;SDS011;4613;48.392;9.998;2023-08-31T07:48:22;1.10;;;1.10;;
9156;SDS011;4613;48.392;9.998;2023-08-31T07:51:11;1.43;;;1.30;;
9156;SDS011;4613;48.392;9.998;2023-08-31T07:54:01;2.40;;;1.70;;
9156;SDS011;4613;48.392;9.998;2023-08-31T07:56:51;1.70;;;1.50;;
9156;SDS011;4613;48.392;9.998;2023-08-31T07:59:40;1.93;;;1.40;;
9156;SDS011;4613;48.392;9.998;2023-08-31T08:02:31;1.20;;;1.10;;
9156;SDS011;4613;48.392;9.998;2023-08-31T08:05:20;1.30;;;1.20;;
9156;SDS011;4613;48.392;9.998;2023-08-31T08:08:11;1.30;;;1.20;;
9156;SDS011;4613;48.392;9.998;2023-08-31T08:11:00;1.60;;;1.40;;
9156;SDS011;4613;48.392;9.998;2023-08-31T08:13:51;1.80;;;1.43;;
9156;SDS011;4613;48.392;9.998;2023-08-31T08:16:41;2.70;;;1.10;;
9156;SDS011;4613;48.392;9.998;2023-08-31T08:19:30;1.47;;;1.37;;
9156;SDS011;4613;48.392;9.998;2023-08-31T08:22:19;3.70;;;1.20;;
9156;SDS011;4613;48.392;9.998;2023-08-31T08:25:08;1.00;;;1.00;;
9156;SDS011;4613;48.392;9.998;2023-08-31T08:27:57;1.60;;;1.20;;
9156;SDS011;4613;48.392;9.998;2023-08-31T08:30:46;2.00;;;1.10;;
9156;SDS011;4613;48.392;9.998;2023-08-31T08:33:35;1.10;;;1.00;;
9156;SDS011;4613;48.392;9.998;2023-08-31T08:36:24;1.30;;;1.20;;
9156;SDS011;4613;48.392;9.998;2023-08-31T08:39:14;0.80;;;0.80;;
9156;SDS011;4613;48.392;9.998;2023-08-31T08:42:04;1.00;;;1.00;;
9156;SDS011;4613;48.392;9.998;2023-08-31T08:44:54;1.93;;;1.23;;
9156;SDS011;4613;48.392;9.998;2023-08-31T08:47:46;1.37;;;1.00;;
9156;SDS011;4613;48.392;9.998;2023-08-31T08:50:36;1.70;;;1.10;;
9156;SDS011;4613;48.392;9.998;2023-08-31T08:53:25;1.90;;;1.13;;
9156;SDS011;4613;48.392;9.998;2023-08-31T08:56:15;0.87;;;0.87;;
9156;SDS011;4613;48.392;9.998;2023-08-31T08:59:04;1.23;;;1.00;;
9156;SDS011;4613;48.392;9.998;2023-08-31T09:01:54;1.23;;;1.13;;
9156;SDS011;4613;48.392;9.998;2023-08-31T09:04:43;0.90;;;0.90;;
9156;SDS011;4613;48.392;9.998;2023-08-31T09:07:34;1.30;;;1.10;;
9156;SDS011;4613;48.392;9.998;2023-08-31T09:10:36;0.80;;;0.80;;
9156;SDS011;4613;48.392;9.998;2023-08-31T09:13:28;1.20;;;1.10;;
9156;SDS011;4613;48.392;9.998;2023-08-31T09:16:25;0.80;;;0.80;;
9156;SDS011;4613;48.392;9.998;2023-08-31T09:19:21;1.43;;;1.00;;
9156;SDS011;4613;48.392;9.998;2023-08-31T09:22:11;1.10;;;1.00;;
9156;SDS011;4613;48.392;9.998;2023-08-31T09:25:00;0.93;;;0.93;;
9156;SDS011;4613;48.392;9.998;2023-08-31T09:27:50;1.20;;;1.10;;
9156;SDS011;4613;48.392;9.998;2023-08-31T09:30:40;3.30;;;1.30;;
9156;SDS011;4613;48.392;9.998;2023-08-31T09:33:31;0.97;;;0.97;;
9156;SDS011;4613;48.392;9.998;2023-08-31T09:36:20;1.00;;;1.00;;
9156;SDS011;4613;48.392;9.998;2023-08-31T09:39:12;2.37;;;1.30;;
9156;SDS011;4613;48.392;9.998;2023-08-31T09:42:03;1.13;;;1.00;;
9156;SDS011;4613;48.392;9.998;2023-08-31T09:44:53;0.90;;;0.90;;
9156;SDS011;4613;48.392;9.998;2023-08-31T09:47:42;0.90;;;0.90;;
9156;SDS011;4613;48.392;9.998;2023-08-31T09:50:32;1.17;;;1.00;;
9156;SDS011;4613;48.392;9.998;2023-08-31T09:53:23;1.00;;;0.90;;
9156;SDS011;4613;48.392;9.998;2023-08-31T09:56:13;1.27;;;0.80;;
9156;SDS011;4613;48.392;9.998;2023-08-31T09:59:09;1.43;;;1.00;;
9156;SDS011;4613;48.392;9.998;2023-08-31T10:02:00;1.23;;;1.10;;
9156;SDS011;4613;48.392;9.998;2023-08-31T10:04:50;0.93;;;0.90;;
9156;SDS011;4613;48.392;9.998;2023-08-31T10:07:41;1.03;;;1.00;;
9156;SDS011;4613;48.392;9.998;2023-08-31T10:10:32;1.30;;;1.00;;
9156;SDS011;4613;48.392;9.998;2023-08-31T10:13:23;0.80;;;0.80;;
9156;SDS011;4613;48.392;9.998;2023-08-31T10:16:12;1.00;;;0.97;;
9156;SDS011;4613;48.392;9.998;2023-08-31T10:19:03;1.13;;;0.90;;
9156;SDS011;4613;48.392;9.998;2023-08-31T10:21:53;1.00;;;1.00;;
9156;SDS011;4613;48.392;9.998;2023-08-31T10:25:04;0.90;;;0.90;;
9156;SDS011;4613;48.392;9.998;2023-08-31T10:27:57;1.10;;;1.10;;
9156;SDS011;4613;48.392;9.998;2023-08-31T10:36:50;0.97;;;0.90;;
9156;SDS011;4613;48.392;9.998;2023-08-31T10:39:39;0.90;;;0.80;;
9156;SDS011;4613;48.392;9.998;2023-08-31T10:42:28;1.37;;;1.10;;
9156;SDS011;4613;48.392;9.998;2023-08-31T10:45:21;1.27;;;1.17;;
9156;SDS011;4613;48.392;9.998;2023-08-31T10:48:10;0.90;;;0.90;;
9156;SDS011;4613;48.392;9.998;2023-08-31T10:50:59;1.10;;;1.00;;
9156;SDS011;4613;48.392;9.998;2023-08-31T10:53:48;1.20;;;1.10;;
9156;SDS011;4613;48.392;9.998;2023-08-31T10:57:21;1.87;;;1.20;;
9156;SDS011;4613;48.392;9.998;2023-08-31T10:59:58;1.40;;;1.30;;
9156;SDS011;4613;48.392;9.998;2023-08-31T11:02:47;1.20;;;1.10;;
9156;SDS011;4613;48.392;9.998;2023-08-31T11:05:37;0.80;;;0.80;;
9156;SDS011;4613;48.392;9.998;2023-08-31T11:08:40;1.07;;;1.00;;
9156;SDS011;4613;48.392;9.998;2023-08-31T11:11:39;1.10;;;1.10;;
9156;SDS011;4613;48.392;9.998;2023-08-31T11:14:28;1.80;;;0.90;;
9156;SDS011;4613;48.392;9.998;2023-08-31T11:17:18;1.50;;;1.10;;
9156;SDS011;4613;48.392;9.998;2023-08-31T11:20:07;1.27;;;1.17;;
9156;SDS011;4613;48.392;9.998;2023-08-31T11:22:57;0.87;;;0.87;;
9156;SDS011;4613;48.392;9.998;2023-08-31T11:25:47;1.07;;;1.07;;
9156;SDS011;4613;48.392;9.998;2023-08-31T11:28:36;1.27;;;1.10;;
9156;SDS011;4613;48.392;9.998;2023-08-31T11:31:25;1.07;;;0.97;;
9156;SDS011;4613;48.392;9.998;2023-08-31T11:34:15;1.30;;;1.10;;
9156;SDS011;4613;48.392;9.998;2023-08-31T11:37:06;1.50;;;1.20;;
9156;SDS011;4613;48.392;9.998;2023-08-31T11:39:56;1.00;;;1.00;;
9156;SDS011;4613;48.392;9.998;2023-08-31T11:42:49;1.63;;;1.27;;
9156;SDS011;4613;48.392;9.998;2023-08-31T11:45:40;1.00;;;1.00;;
9156;SDS011;4613;48.392;9.998;2023-08-31T11:48:30;2.10;;;1.07;;
9156;SDS011;4613;48.392;9.998;2023-08-31T11:51:21;0.80;;;0.80;;
9156;SDS011;4613;48.392;9.998;2023-08-31T11:54:10;1.47;;;1.00;;
9156;SDS011;4613;48.392;9.998;2023-08-31T11:57:00;1.10;;;0.90;;
9156;SDS011;4613;48.392;9.998;2023-08-31T11:59:49;1.43;;;1.20;;
9156;SDS011;4613;48.392;9.998;2023-08-31T12:02:39;1.00;;;0.70;;
9156;SDS011;4613;48.392;9.998;2023-08-31T12:05:29;1.70;;;1.10;;
9156;SDS011;4613;48.392;9.998;2023-08-31T12:08:33;1.53;;;1.20;;
9156;SDS011;4613;48.392;9.998;2023-08-31T12:11:25;1.20;;;1.10;;
9156;SDS011;4613;48.392;9.998;2023-08-31T12:17:10;0.80;;;0.80;;
9156;SDS011;4613;48.392;9.998;2023-08-31T12:20:03;1.07;;;1.00;;
9156;SDS011;4613;48.392;9.998;2023-08-31T12:22:53;1.60;;;1.10;;
9156;SDS011;4613;48.392;9.998;2023-08-31T12:25:46;1.13;;;1.13;;
9156;SDS011;4613;48.392;9.998;2023-08-31T12:28:36;1.10;;;1.10;;
9156;SDS011;4613;48.392;9.998;2023-08-31T12:31:26;1.00;;;1.00;;
9156;SDS011;4613;48.392;9.998;2023-08-31T12:34:15;0.97;;;0.97;;
9156;SDS011;4613;48.392;9.998;2023-08-31T12:37:04;1.17;;;0.97;;
9156;SDS011;4613;48.392;9.998;2023-08-31T12:39:54;2.20;;;0.80;;
9156;SDS011;4613;48.392;9.998;2023-08-31T12:42:43;0.90;;;0.90;;
9156;SDS011;4613;48.392;9.998;2023-08-31T12:45:33;1.90;;;1.00;;
9156;SDS011;4613;48.392;9.998;2023-08-31T12:48:22;1.67;;;1.10;;
9156;SDS011;4613;48.392;9.998;2023-08-31T12:51:11;2.30;;;1.00;;
9156;SDS011;4613;48.392;9.998;2023-08-31T12:54:01;0.90;;;0.90;;
9156;SDS011;4613;48.392;9.998;2023-08-31T12:56:50;1.10;;;1.00;;
9156;SDS011;4613;48.392;9.998;2023-08-31T12:59:39;1.00;;;0.93;;
9156;SDS011;4613;48.392;9.998;2023-08-31T13:02:29;2.33;;;1.50;;
9156;SDS011;4613;48.392;9.998;2023-08-31T13:05:17;1.90;;;0.90;;
9156;SDS011;4613;48.392;9.998;2023-08-31T13:08:07;0.90;;;0.90;;
9156;SDS011;4613;48.392;9.998;2023-08-31T13:10:57;0.90;;;0.90;;
9156;SDS011;4613;48.392;9.998;2023-08-31T13:13:46;0.90;;;0.90;;
9156;SDS011;4613;48.392;9.998;2023-08-31T13:16:35;0.90;;;0.90;;
9156;SDS011;4613;48.392;9.998;2023-08-31T13:19:28;1.33;;;1.10;;
9156;SDS011;4613;48.392;9.998;2023-08-31T13:22:17;1.30;;;1.20;;
9156;SDS011;4613;48.392;9.998;2023-08-31T13:25:06;2.97;;;1.60;;
9156;SDS011;4613;48.392;9.998;2023-08-31T13:27:55;1.17;;;1.10;;
9156;SDS011;4613;48.392;9.998;2023-08-31T13:30:45;1.03;;;1.00;;
9156;SDS011;4613;48.392;9.998;2023-08-31T13:33:35;0.93;;;0.90;;
9156;SDS011;4613;48.392;9.998;2023-08-31T13:36:24;1.00;;;0.90;;
9156;SDS011;4613;48.392;9.998;2023-08-31T13:39:13;1.10;;;1.00;;
9156;SDS011;4613;48.392;9.998;2023-08-31T13:42:02;0.90;;;0.90;;
9156;SDS011;4613;48.392;9.998;2023-08-31T13:44:52;1.27;;;1.10;;
9156;SDS011;4613;48.392;9.998;2023-08-31T13:47:41;1.20;;;1.00;;
9156;SDS011;4613;48.392;9.998;2023-08-31T13:50:35;1.27;;;1.07;;
9156;SDS011;4613;48.392;9.998;2023-08-31T13:53:25;1.80;;;1.00;;
9156;SDS011;4613;48.392;9.998;2023-08-31T13:56:15;1.17;;;1.07;;
9156;SDS011;4613;48.392;9.998;2023-08-31T13:59:04;1.20;;;1.10;;
9156;SDS011;4613;48.392;9.998;2023-08-31T14:01:54;1.03;;;0.97;;
9156;SDS011;4613;48.392;9.998;2023-08-31T14:04:43;1.93;;;1.33;;
9156;SDS011;4613;48.392;9.998;2023-08-31T14:07:32;2.00;;;1.60;;
9156;SDS011;4613;48.392;9.998;2023-08-31T14:10:22;2.63;;;1.30;;
9156;SDS011;4613;48.392;9.998;2023-08-31T14:13:11;1.20;;;1.10;;
9156;SDS011;4613;48.392;9.998;2023-08-31T14:16:00;0.90;;;0.90;;
9156;SDS011;4613;48.392;9.998;2023-08-31T14:18:49;1.53;;;0.90;;
9156;SDS011;4613;48.392;9.998;2023-08-31T14:21:39;1.60;;;0.90;;
9156;SDS011;4613;48.392;9.998;2023-08-31T14:24:29;1.77;;;1.20;;
9156;SDS011;4613;48.392;9.998;2023-08-31T14:27:17;0.90;;;0.90;;
9156;SDS011;4613;48.392;9.998;2023-08-31T14:30:07;1.00;;;1.00;;
9156;SDS011;4613;48.392;9.998;2023-08-31T14:32:57;1.20;;;1.00;;
9156;SDS011;4613;48.392;9.998;2023-08-31T14:35:46;0.80;;;0.80;;
9156;SDS011;4613;48.392;9.998;2023-08-31T14:38:37;1.17;;;1.07;;
9156;SDS011;4613;48.392;9.998;2023-08-31T14:41:27;1.10;;;1.00;;
9156;SDS011;4613;48.392;9.998;2023-08-31T14:44:18;1.10;;;1.10;;
9156;SDS011;4613;48.392;9.998;2023-08-31T14:47:07;0.80;;;0.80;;
9156;SDS011;4613;48.392;9.998;2023-08-31T14:49:56;1.40;;;1.00;;
9156;SDS011;4613;48.392;9.998;2023-08-31T14:52:45;0.90;;;0.90;;
9156;SDS011;4613;48.392;9.998;2023-08-31T14:55:36;1.20;;;1.10;;
9156;SDS011;4613;48.392;9.998;2023-08-31T14:58:26;3.53;;;1.93;;
9156;SDS011;4613;48.392;9.998;2023-08-31T15:01:15;1.30;;;1.20;;
9156;SDS011;4613;48.392;9.998;2023-08-31T15:04:04;1.13;;;1.07;;
9156;SDS011;4613;48.392;9.998;2023-08-31T15:06:53;1.00;;;1.00;;
9156;SDS011;4613;48.392;9.998;2023-08-31T15:09:43;1.63;;;1.30;;
9156;SDS011;4613;48.392;9.998;2023-08-31T15:12:33;1.33;;;1.20;;
9156;SDS011;4613;48.392;9.998;2023-08-31T15:15:22;1.30;;;1.20;;
9156;SDS011;4613;48.392;9.998;2023-08-31T15:18:11;1.77;;;1.07;;
9156;SDS011;4613;48.392;9.998;2023-08-31T15:21:00;1.17;;;1.10;;
9156;SDS011;4613;48.392;9.998;2023-08-31T15:23:49;1.20;;;1.03;;
9156;SDS011;4613;48.392;9.998;2023-08-31T15:26:39;1.30;;;1.20;;
9156;SDS011;4613;48.392;9.998;2023-08-31T15:29:28;1.07;;;1.07;;
9156;SDS011;4613;48.392;9.998;2023-08-31T15:32:19;1.33;;;1.13;;
9156;SDS011;4613;48.392;9.998;2023-08-31T15:35:08;0.80;;;0.80;;
9156;SDS011;4613;48.392;9.998;2023-08-31T15:37:58;1.40;;;1.10;;
9156;SDS011;4613;48.392;9.998;2023-08-31T15:40:48;1.10;;;1.00;;
9156;SDS011;4613;48.392;9.998;2023-08-31T15:43:37;1.77;;;1.47;;
9156;SDS011;4613;48.392;9.998;2023-08-31T15:46:27;0.90;;;0.90;;
9156;SDS011;4613;48.392;9.998;2023-08-31T15:49:16;1.10;;;1.10;;
9156;SDS011;4613;48.392;9.998;2023-08-31T15:52:05;1.67;;;1.20;;
9156;SDS011;4613;48.392;9.998;2023-08-31T15:54:55;1.00;;;1.00;;
9156;SDS011;4613;48.392;9.998;2023-08-31T15:57:45;1.93;;;1.30;;
9156;SDS011;4613;48.392;9.998;2023-08-31T16:00:33;1.50;;;1.37;;
9156;SDS011;4613;48.392;9.998;2023-08-31T16:03:23;0.90;;;0.90;;
9156;SDS011;4613;48.392;9.998;2023-08-31T16:06:12;1.53;;;1.00;;
9156;SDS011;4613;48.392;9.998;2023-08-31T16:09:03;1.43;;;1.10;;
9156;SDS011;4613;48.392;9.998;2023-08-31T16:11:54;1.60;;;1.20;;
9156;SDS011;4613;48.392;9.998;2023-08-31T16:14:49;1.20;;;1.10;;
9156;SDS011;4613;48.392;9.998;2023-08-31T16:17:39;1.20;;;1.20;;
9156;SDS011;4613;48.392;9.998;2023-08-31T16:20:30;1.03;;;0.90;;
9156;SDS011;4613;48.392;9.998;2023-08-31T16:23:19;1.53;;;1.00;;
9156;SDS011;4613;48.392;9.998;2023-08-31T16:26:09;1.90;;;1.20;;
9156;SDS011;4613;48.392;9.998;2023-08-31T16:28:58;2.30;;;1.10;;
9156;SDS011;4613;48.392;9.998;2023-08-31T16:31:48;2.13;;;1.20;;
9156;SDS011;4613;48.392;9.998;2023-08-31T16:34:37;2.67;;;1.23;;
9156;SDS011;4613;48.392;9.998;2023-08-31T16:37:27;0.93;;;0.93;;
9156;SDS011;4613;48.392;9.998;2023-08-31T16:40:16;1.00;;;1.00;;
9156;SDS011;4613;48.392;9.998;2023-08-31T16:43:05;1.40;;;1.20;;
9156;SDS011;4613;48.392;9.998;2023-08-31T16:45:59;1.23;;;1.10;;
9156;SDS011;4613;48.392;9.998;2023-08-31T16:48:50;1.00;;;1.00;;
9156;SDS011;4613;48.392;9.998;2023-08-31T16:51:39;1.30;;;1.07;;
9156;SDS011;4613;48.392;9.998;2023-08-31T16:54:28;1.23;;;1.17;;
9156;SDS011;4613;48.392;9.998;2023-08-31T16:57:17;1.17;;;1.07;;
9156;SDS011;4613;48.392;9.998;2023-08-31T17:00:06;1.60;;;1.20;;
9156;SDS011;4613;48.392;9.998;2023-08-31T17:02:58;1.50;;;1.20;;
9156;SDS011;4613;48.392;9.998;2023-08-31T17:05:52;1.67;;;1.30;;
9156;SDS011;4613;48.392;9.998;2023-08-31T17:08:42;1.30;;;1.20;;
9156;SDS011;4613;48.392;9.998;2023-08-31T17:11:32;3.53;;;1.10;;
9156;SDS011;4613;48.392;9.998;2023-08-31T17:14:22;1.23;;;1.17;;
9156;SDS011;4613;48.392;9.998;2023-08-31T17:17:11;1.97;;;1.33;;
9156;SDS011;4613;48.392;9.998;2023-08-31T17:20:02;1.30;;;1.20;;
9156;SDS011;4613;48.392;9.998;2023-08-31T17:22:57;1.10;;;1.00;;
9156;SDS011;4613;48.392;9.998;2023-08-31T17:25:47;1.50;;;1.40;;
9156;SDS011;4613;48.392;9.998;2023-08-31T17:28:36;3.07;;;1.60;;
9156;SDS011;4613;48.392;9.998;2023-08-31T17:31:25;1.77;;;1.60;;
9156;SDS011;4613;48.392;9.998;2023-08-31T17:34:14;13.53;;;1.20;;
9156;SDS011;4613;48.392;9.998;2023-08-31T17:37:06;2.77;;;1.80;;
9156;SDS011;4613;48.392;9.998;2023-08-31T17:39:56;1.40;;;1.30;;
9156;SDS011;4613;48.392;9.998;2023-08-31T17:42:45;2.60;;;1.57;;
9156;SDS011;4613;48.392;9.998;2023-08-31T17:45:35;1.43;;;1.20;;
9156;SDS011;4613;48.392;9.998;2023-08-31T17:48:24;1.63;;;1.10;;
9156;SDS011;4613;48.392;9.998;2023-08-31T17:51:13;2.83;;;1.40;;
9156;SDS011;4613;48.392;9.998;2023-08-31T17:54:02;2.10;;;1.40;;
9156;SDS011;4613;48.392;9.998;2023-08-31T17:56:51;1.10;;;1.00;;
9156;SDS011;4613;48.392;9.998;2023-08-31T17:59:41;2.17;;;1.20;;
9156;SDS011;4613;48.392;9.998;2023-08-31T18:02:30;2.30;;;1.30;;